Heights, Texas
Current Conditions -  °F | °C
As of 6:55 AM on Wednesday 26 Nov 2014 (Local Time) from KMCJ Reporting Station
Clear Clear  
Wind Chill: 52°   Ceiling: Unl
Heat Index: 52°   Visibility: 10mi
Dew Point: 41°   Wind: 12mph
Humidity: 67%   Direction: 220°SW
Pressure: 30.18"   Gusts: 23mph
Location:  29.7982°N, 95.4183°W
Report Text: KMCJ 261255Z AUTO 22010G20KT 10SM CLR 11/05 A3018 RMK AO1
Loading
Personal Weather Stations






























Interactive Weather Map New forecast layout! Learn more

10-Day Weather Forecast

Advertisements
Track Severe Weather on mobile